createdAt,value
2016-05-27T00:00:02.512Z,96.7
2016-05-27T00:00:05.450Z,96.6
2016-05-27T00:00:08.246Z,96.7
2016-05-27T00:00:11.168Z,96.5
2016-05-27T00:00:15.090Z,96.7
2016-05-27T00:00:18.043Z,96.7
2016-05-27T00:00:20.981Z,96.7
2016-05-27T00:00:23.934Z,96.7
2016-05-27T00:00:27.856Z,96.3
2016-05-27T00:00:30.825Z,96.6
2016-05-27T00:00:33.606Z,96.3
2016-05-27T00:00:36.387Z,96.6
2016-05-27T00:00:40.153Z,96.7
2016-05-27T00:00:43.106Z,96.5
2016-05-27T00:00:45.731Z,96.6
2016-05-27T00:00:48.668Z,96.2
2016-05-27T00:00:52.450Z,96.2
2016-05-27T00:00:55.246Z,96.3
2016-05-27T00:00:58.202Z,96.4
2016-05-27T00:01:01.139Z,96
2016-05-27T00:01:04.905Z,96.3
2016-05-27T00:01:07.858Z,96.2
2016-05-27T00:01:10.795Z,96.3
2016-05-27T00:01:13.577Z,96.1
2016-05-27T00:01:17.373Z,95.6
2016-05-27T00:01:20.327Z,96.4
2016-05-27T00:01:23.108Z,96.3
2016-05-27T00:01:26.061Z,96.2
2016-05-27T00:01:29.827Z,96.2
2016-05-27T00:01:32.623Z,96.3
2016-05-27T00:01:35.561Z,95.7
2016-05-27T00:01:38.202Z,95.9
2016-05-27T00:01:42.123Z,95.7
2016-05-27T00:01:45.077Z,96
2016-05-27T00:01:47.858Z,95.9
2016-05-27T00:01:50.655Z,95.7
2016-05-27T00:01:54.420Z,95.8
2016-05-27T00:01:57.361Z,95.8
2016-05-27T00:02:00.314Z,96.1
2016-05-27T00:02:03.251Z,96
2016-05-27T00:02:07.173Z,95.6
2016-05-27T00:02:10.111Z,95.9
2016-05-27T00:02:13.064Z,95.6
2016-05-27T00:02:16.001Z,95.5
2016-05-27T00:02:19.611Z,95.2
2016-05-27T00:02:22.392Z,95.4
2016-05-27T00:02:25.345Z,95.2
2016-05-27T00:02:28.126Z,95.2
2016-05-27T00:02:31.892Z,95.4
2016-05-27T00:02:34.533Z,95.4
2016-05-27T00:02:37.486Z,95.1
2016-05-27T00:02:40.267Z,95.2
2016-05-27T00:02:43.876Z,95.2
2016-05-27T00:02:46.955Z,95.6
2016-05-27T00:02:50.048Z,95.6
2016-05-27T00:02:54.033Z,95.7
2016-05-27T00:02:57.114Z,95.2
2016-05-27T00:03:00.083Z,95.4
2016-05-27T00:03:04.004Z,95.6
2016-05-27T00:03:06.801Z,95.6
2016-05-27T00:03:09.583Z,95.6
2016-05-27T00:03:12.520Z,95.6
2016-05-27T00:03:16.442Z,96
2016-05-27T00:03:19.395Z,95.7
2016-05-27T00:03:22.192Z,95.6
2016-05-27T00:03:25.379Z,95.8
2016-05-27T00:03:29.004Z,95.7
2016-05-27T00:03:32.708Z,96.1
2016-05-27T00:03:35.489Z,95.9
2016-05-27T00:03:38.301Z,95.6
2016-05-27T00:03:42.551Z,96
2016-05-27T00:03:46.145Z,95.8
2016-05-27T00:03:49.583Z,95.9
2016-05-27T00:03:53.208Z,96
2016-05-27T00:03:56.145Z,96.2
2016-05-27T00:03:58.961Z,96.1
2016-05-27T00:04:02.351Z,96.2
2016-05-27T00:04:06.273Z,96.3
2016-05-27T00:04:09.101Z,96
2016-05-27T00:04:12.054Z,96
2016-05-27T00:04:15.195Z,96
2016-05-27T00:04:19.148Z,96.2
2016-05-27T00:04:21.945Z,96.4
2016-05-27T00:04:24.695Z,96.2
2016-05-27T00:04:28.039Z,96.1
2016-05-27T00:04:31.695Z,96
2016-05-27T00:04:34.476Z,96.4
2016-05-27T00:04:37.273Z,96.4
2016-05-27T00:04:40.070Z,96.4
2016-05-27T00:04:43.836Z,96.3
2016-05-27T00:04:46.632Z,96.1
2016-05-27T00:04:49.414Z,96.1
2016-05-27T00:04:52.211Z,95.8
2016-05-27T00:04:56.132Z,95.8
2016-05-27T00:04:59.088Z,96.1
2016-05-27T00:05:01.869Z,96.2
2016-05-27T00:05:04.822Z,96.3
2016-05-27T00:05:08.588Z,96.4
2016-05-27T00:05:11.509Z,96.4
2016-05-27T00:05:14.463Z,96.3
2016-05-27T00:05:17.400Z,95.6
2016-05-27T00:05:21.181Z,96
2016-05-27T00:05:23.978Z,95.7
2016-05-27T00:05:26.916Z,96.3
2016-05-27T00:05:29.869Z,95.9
2016-05-27T00:05:33.775Z,95.6
2016-05-27T00:05:36.713Z,96.1
2016-05-27T00:05:39.650Z,96.1
2016-05-27T00:05:42.603Z,95.7
2016-05-27T00:05:46.369Z,96.1
2016-05-27T00:05:49.306Z,96.2
2016-05-27T00:05:52.103Z,96.3
2016-05-27T00:05:55.056Z,96.3
2016-05-27T00:05:58.669Z,96
2016-05-27T00:06:01.622Z,96.4
2016-05-27T00:06:04.559Z,96.4
2016-05-27T00:06:07.341Z,96.1
2016-05-27T00:06:11.106Z,96.3
2016-05-27T00:06:13.887Z,96.3
2016-05-27T00:06:17.216Z,96.5
2016-05-27T00:06:20.247Z,96.2
2016-05-27T00:06:24.075Z,96.2
2016-05-27T00:06:27.294Z,96.1
2016-05-27T00:06:30.356Z,96.2
2016-05-27T00:06:34.341Z,96.2
2016-05-27T00:06:37.325Z,96
2016-05-27T00:06:40.325Z,95.9
2016-05-27T00:06:43.294Z,95.7
2016-05-27T00:06:47.059Z,95.7
2016-05-27T00:06:50.012Z,95.9
2016-05-27T00:06:52.950Z,96.1
2016-05-27T00:06:55.591Z,96
2016-05-27T00:06:59.515Z,96.2
2016-05-27T00:07:02.453Z,95.7
2016-05-27T00:07:05.094Z,95.7
2016-05-27T00:07:07.875Z,96
2016-05-27T00:07:11.640Z,95.3
2016-05-27T00:07:14.594Z,95.4
2016-05-27T00:07:17.234Z,95.5
2016-05-27T00:07:20.172Z,95.6
2016-05-27T00:07:24.172Z,95.6
2016-05-27T00:07:27.125Z,95.4
2016-05-27T00:07:30.062Z,95.1
2016-05-27T00:07:33.015Z,95.5
2016-05-27T00:07:36.953Z,95.4
2016-05-27T00:07:39.906Z,95.4
2016-05-27T00:07:42.828Z,94.9
2016-05-27T00:07:45.781Z,95
2016-05-27T00:07:49.687Z,95
2016-05-27T00:07:52.625Z,95.3
2016-05-27T00:07:55.594Z,95.2
2016-05-27T00:07:58.392Z,95.2
2016-05-27T00:08:02.174Z,95.3
2016-05-27T00:08:05.111Z,95.4
2016-05-27T00:08:08.064Z,94.8
2016-05-27T00:08:11.002Z,95.4
2016-05-27T00:08:14.924Z,94.9
2016-05-27T00:08:17.861Z,95
2016-05-27T00:08:20.658Z,94.6
2016-05-27T00:08:23.596Z,94.6
2016-05-27T00:08:27.533Z,94.6
2016-05-27T00:08:30.471Z,94.9
2016-05-27T00:08:33.111Z,94.9
2016-05-27T00:08:35.736Z,94.8
2016-05-27T00:08:39.502Z,94.7
2016-05-27T00:08:42.439Z,94.9
2016-05-27T00:08:45.392Z,94.6
2016-05-27T00:08:48.346Z,94.7
2016-05-27T00:08:52.267Z,94.5
2016-05-27T00:08:55.049Z,95.1
2016-05-27T00:08:57.833Z,95.1
2016-05-27T00:09:00.630Z,95
2016-05-27T00:09:04.395Z,95.6
2016-05-27T00:09:07.177Z,95.5
2016-05-27T00:09:10.130Z,95.3
2016-05-27T00:09:13.067Z,95.2
2016-05-27T00:09:17.005Z,95.4
2016-05-27T00:09:19.942Z,95.4
2016-05-27T00:09:22.739Z,95.7
2016-05-27T00:09:25.677Z,95.6
2016-05-27T00:09:29.286Z,95.7
2016-05-27T00:09:32.083Z,95.6
2016-05-27T00:09:35.036Z,96.2
2016-05-27T00:09:37.974Z,96.2
2016-05-27T00:09:41.895Z,96.1
2016-05-27T00:09:44.833Z,95.9
2016-05-27T00:09:47.474Z,95.9
2016-05-27T00:09:50.411Z,95.6
2016-05-27T00:09:54.333Z,95.6
2016-05-27T00:09:56.961Z,95.9
2016-05-27T00:09:59.898Z,96.2
2016-05-27T00:10:02.852Z,96.1
2016-05-27T00:10:06.789Z,96.4
2016-05-27T00:10:09.742Z,96.3
2016-05-27T00:10:12.367Z,96.4
2016-05-27T00:10:15.164Z,96.3
2016-05-27T00:10:18.930Z,96.3
2016-05-27T00:10:21.867Z,96.3
2016-05-27T00:10:24.805Z,96.3
2016-05-27T00:10:27.789Z,96.2
2016-05-27T00:10:31.570Z,96.3
2016-05-27T00:10:34.367Z,96.3
2016-05-27T00:10:37.148Z,96.4
2016-05-27T00:10:40.086Z,96.4
2016-05-27T00:10:44.023Z,96.4
2016-05-27T00:10:46.961Z,96.2
2016-05-27T00:10:49.898Z,96.1
2016-05-27T00:10:52.680Z,96.5
2016-05-27T00:10:56.617Z,96.2
2016-05-27T00:10:59.400Z,96.7
2016-05-27T00:11:02.338Z,96.6
2016-05-27T00:11:05.291Z,96.6
2016-05-27T00:11:09.213Z,96.6
2016-05-27T00:11:12.150Z,96.7
2016-05-27T00:11:14.932Z,96.8
2016-05-27T00:11:17.869Z,96.8
2016-05-27T00:11:21.807Z,97
2016-05-27T00:11:24.744Z,96.7
2016-05-27T00:11:27.525Z,96.9
2016-05-27T00:11:30.463Z,96.7
2016-05-27T00:11:34.244Z,96.8
2016-05-27T00:11:37.182Z,96.8
2016-05-27T00:11:39.963Z,96.7
2016-05-27T00:11:42.916Z,96.8
2016-05-27T00:11:46.854Z,96.9
2016-05-27T00:11:49.666Z,97
2016-05-27T00:11:52.463Z,96.7
2016-05-27T00:11:55.416Z,96.7
2016-05-27T00:11:59.185Z,96.8
2016-05-27T00:12:02.122Z,97
2016-05-27T00:12:05.060Z,96.8
2016-05-27T00:12:07.872Z,97
2016-05-27T00:12:11.794Z,97
2016-05-27T00:12:14.747Z,97
2016-05-27T00:12:17.700Z,96.7
2016-05-27T00:12:20.185Z,96.9
2016-05-27T00:12:24.107Z,96.5
2016-05-27T00:12:26.888Z,96.6
2016-05-27T00:12:29.825Z,96.6
2016-05-27T00:12:32.763Z,96.7
2016-05-27T00:12:36.700Z,96.3
2016-05-27T00:12:39.497Z,96.2
2016-05-27T00:12:42.435Z,96.5
2016-05-27T00:12:45.388Z,96.3
2016-05-27T00:12:49.310Z,96.1
2016-05-27T00:12:52.107Z,96.2
2016-05-27T00:12:55.060Z,96
2016-05-27T00:12:57.843Z,96.3
2016-05-27T00:13:01.609Z,96.3
2016-05-27T00:13:04.546Z,96.3
2016-05-27T00:13:07.343Z,96.1
2016-05-27T00:13:10.140Z,96.4
2016-05-27T00:13:14.062Z,96.1
2016-05-27T00:13:16.999Z,95.6
2016-05-27T00:13:19.937Z,96.2
2016-05-27T00:13:22.874Z,95.6
2016-05-27T00:13:26.499Z,96.1
2016-05-27T00:13:29.452Z,95.6
2016-05-27T00:13:32.390Z,96.3
2016-05-27T00:13:35.030Z,96.1
2016-05-27T00:13:38.796Z,96.1
2016-05-27T00:13:41.734Z,96.3
2016-05-27T00:13:44.687Z,96.2
2016-05-27T00:13:47.484Z,96.4
2016-05-27T00:13:51.265Z,96.2
2016-05-27T00:13:54.046Z,95.7
2016-05-27T00:13:56.847Z,95.6
2016-05-27T00:13:59.628Z,95.7
2016-05-27T00:14:03.238Z,95.6
2016-05-27T00:14:06.191Z,95.8
2016-05-27T00:14:09.128Z,95.9
2016-05-27T00:14:12.066Z,95.9
2016-05-27T00:14:15.988Z,96
2016-05-27T00:14:18.941Z,96.2
2016-05-27T00:14:21.894Z,96.3
2016-05-27T00:14:24.675Z,96.1
2016-05-27T00:14:28.597Z,96.1
2016-05-27T00:14:31.534Z,95.9
2016-05-27T00:14:34.488Z,96.4
2016-05-27T00:14:37.269Z,96.4
2016-05-27T00:14:41.191Z,96.3
2016-05-27T00:14:44.144Z,96.3
2016-05-27T00:14:47.097Z,96.4
2016-05-27T00:14:50.034Z,96
2016-05-27T00:14:53.800Z,96.1
2016-05-27T00:14:56.597Z,96.3
2016-05-27T00:14:59.552Z,96.3
2016-05-27T00:15:02.490Z,96.4
2016-05-27T00:15:06.271Z,95.9
2016-05-27T00:15:09.224Z,96.1
2016-05-27T00:15:11.865Z,96.4
2016-05-27T00:15:14.646Z,96
2016-05-27T00:15:18.411Z,96.4
2016-05-27T00:15:21.365Z,96.4
2016-05-27T00:15:23.990Z,96.4
2016-05-27T00:15:26.927Z,96.2
2016-05-27T00:15:30.849Z,96.1
2016-05-27T00:15:33.802Z,96.1
2016-05-27T00:15:36.615Z,95.6
2016-05-27T00:15:39.568Z,96.4
2016-05-27T00:15:43.333Z,96.3
2016-05-27T00:15:46.271Z,96.1
2016-05-27T00:15:49.208Z,95.6
2016-05-27T00:15:52.161Z,95.6
2016-05-27T00:15:55.927Z,95.8
2016-05-27T00:15:58.867Z,96.1
2016-05-27T00:16:01.820Z,95.6
2016-05-27T00:16:04.757Z,96.3
2016-05-27T00:16:08.538Z,96
2016-05-27T00:16:11.320Z,96.1
2016-05-27T00:16:14.257Z,96.1
2016-05-27T00:16:17.195Z,95.9
2016-05-27T00:16:21.117Z,96.5
2016-05-27T00:16:24.054Z,96.3
2016-05-27T00:16:27.007Z,96.4
2016-05-27T00:16:29.804Z,96.4
2016-05-27T00:16:33.570Z,96.2
2016-05-27T00:16:36.367Z,96.4
2016-05-27T00:16:39.304Z,96
2016-05-27T00:16:42.085Z,96.2
2016-05-27T00:16:45.851Z,96.1
2016-05-27T00:16:48.804Z,96.1
2016-05-27T00:16:51.757Z,96.1
2016-05-27T00:16:54.554Z,96.1
2016-05-27T00:16:58.479Z,96.2
2016-05-27T00:17:01.120Z,96.5
2016-05-27T00:17:04.073Z,96.3
2016-05-27T00:17:07.010Z,96.4
2016-05-27T00:17:10.932Z,96
2016-05-27T00:17:13.870Z,96.2
2016-05-27T00:17:16.823Z,96.2
2016-05-27T00:17:19.760Z,96.1
2016-05-27T00:17:23.682Z,96.3
2016-05-27T00:17:26.620Z,96.3
2016-05-27T00:17:29.573Z,96.3
2016-05-27T00:17:32.354Z,96.6
2016-05-27T00:17:36.276Z,96.4
2016-05-27T00:17:39.073Z,96.6
2016-05-27T00:17:41.713Z,96.7
2016-05-27T00:17:44.666Z,96.8
2016-05-27T00:17:48.588Z,96.8
2016-05-27T00:17:51.526Z,97
2016-05-27T00:17:54.479Z,97
2016-05-27T00:17:57.123Z,97
2016-05-27T00:18:01.044Z,97.1
2016-05-27T00:18:03.982Z,96.8
2016-05-27T00:18:06.935Z,96.8
2016-05-27T00:18:09.873Z,97.1
2016-05-27T00:18:13.794Z,96.7
2016-05-27T00:18:16.716Z,96.7
2016-05-27T00:18:19.576Z,96.8
2016-05-27T00:18:22.732Z,97.3
2016-05-27T00:18:26.357Z,96.7
2016-05-27T00:18:29.310Z,97.2
2016-05-27T00:18:32.685Z,96.9
2016-05-27T00:18:36.732Z,96.9
2016-05-27T00:18:39.388Z,97.2
2016-05-27T00:18:42.669Z,96.7
2016-05-27T00:18:45.466Z,96.9
2016-05-27T00:18:49.263Z,96.9
2016-05-27T00:18:52.513Z,96.9
2016-05-27T00:18:55.482Z,96.9
2016-05-27T00:18:59.454Z,97.1
2016-05-27T00:19:02.407Z,97.1
2016-05-27T00:19:05.204Z,97.5
2016-05-27T00:19:08.001Z,97.3
2016-05-27T00:19:11.657Z,96.9
2016-05-27T00:19:15.594Z,97.5
2016-05-27T00:19:18.907Z,97.3
2016-05-27T00:19:22.907Z,97.1
2016-05-27T00:19:26.391Z,97.1
2016-05-27T00:19:29.563Z,97.2
2016-05-27T00:19:33.485Z,96.9
2016-05-27T00:19:36.422Z,97.4
2016-05-27T00:19:39.360Z,96.9
2016-05-27T00:19:42.172Z,97.4
2016-05-27T00:19:46.110Z,97.4
2016-05-27T00:19:48.907Z,97.4
2016-05-27T00:19:51.844Z,97.4
2016-05-27T00:19:54.641Z,97.6
2016-05-27T00:19:58.410Z,97.5
2016-05-27T00:20:01.363Z,97.4
2016-05-27T00:20:04.300Z,97.3
2016-05-27T00:20:07.238Z,97.6
2016-05-27T00:20:11.004Z,96.9
2016-05-27T00:20:13.957Z,97
2016-05-27T00:20:16.879Z,97.6
2016-05-27T00:20:19.675Z,97.3
2016-05-27T00:20:23.582Z,97
2016-05-27T00:20:26.363Z,97.3
2016-05-27T00:20:29.160Z,97.5
2016-05-27T00:20:32.097Z,97.2
2016-05-27T00:20:35.879Z,97.3
2016-05-27T00:20:38.832Z,97.7
2016-05-27T00:20:41.769Z,97.5
2016-05-27T00:20:44.550Z,97.6
2016-05-27T00:20:48.316Z,97.6
2016-05-27T00:20:50.957Z,97.7
2016-05-27T00:20:53.910Z,98.1
2016-05-27T00:20:56.847Z,98.1
2016-05-27T00:21:00.615Z,98.3
2016-05-27T00:21:03.568Z,97.9
2016-05-27T00:21:06.506Z,98.3
2016-05-27T00:21:09.146Z,98.1
2016-05-27T00:21:13.068Z,97.9
2016-05-27T00:21:15.849Z,98.2
2016-05-27T00:21:18.818Z,98.1
2016-05-27T00:21:21.599Z,98.3
2016-05-27T00:21:25.521Z,98.2
2016-05-27T00:21:28.162Z,97.8
2016-05-27T00:21:31.099Z,97.9
2016-05-27T00:21:33.881Z,98.2
2016-05-27T00:21:37.802Z,97.9
2016-05-27T00:21:40.756Z,97.4
2016-05-27T00:21:43.552Z,97.3
2016-05-27T00:21:46.490Z,97.7
2016-05-27T00:21:50.427Z,97.8
2016-05-27T00:21:53.365Z,97.8
2016-05-27T00:21:56.302Z,97.3
2016-05-27T00:21:59.101Z,97.6
2016-05-27T00:22:03.023Z,97.6
2016-05-27T00:22:05.976Z,97.6
2016-05-27T00:22:08.914Z,97.4
2016-05-27T00:22:11.851Z,97.8
2016-05-27T00:22:15.773Z,97.3
2016-05-27T00:22:18.726Z,97.3
2016-05-27T00:22:21.523Z,97.3
2016-05-27T00:22:24.304Z,97.3
2016-05-27T00:22:28.070Z,97.2
2016-05-27T00:22:31.008Z,97.4
2016-05-27T00:22:33.804Z,97.5
2016-05-27T00:22:36.742Z,97.5
2016-05-27T00:22:40.508Z,97.7
2016-05-27T00:22:43.320Z,97.2
2016-05-27T00:22:46.258Z,98.1
2016-05-27T00:22:49.054Z,98.1
2016-05-27T00:22:52.836Z,98.1
2016-05-27T00:22:55.617Z,97.9
2016-05-27T00:22:58.557Z,97.9
2016-05-27T00:23:01.370Z,97.9
2016-05-27T00:23:05.136Z,98.1
2016-05-27T00:23:07.932Z,97.9
2016-05-27T00:23:10.870Z,98.2
2016-05-27T00:23:13.651Z,98.3
2016-05-27T00:23:17.557Z,98.1
2016-05-27T00:23:20.495Z,98.1
2016-05-27T00:23:23.448Z,97.4
2016-05-27T00:23:26.386Z,97.3
2016-05-27T00:23:30.151Z,97.5
2016-05-27T00:23:33.104Z,97.6
2016-05-27T00:23:36.042Z,97.8
2016-05-27T00:23:38.995Z,97.6
2016-05-27T00:23:42.917Z,97.7
2016-05-27T00:23:45.698Z,97.7
2016-05-27T00:23:48.636Z,97.5
2016-05-27T00:23:51.448Z,97.3
2016-05-27T00:23:55.214Z,97.3
2016-05-27T00:23:58.171Z,97.3
2016-05-27T00:24:01.108Z,97.4
2016-05-27T00:24:04.046Z,97.6
2016-05-27T00:24:07.655Z,97.4
2016-05-27T00:24:10.452Z,97.2
2016-05-27T00:24:13.093Z,97.3
2016-05-27T00:24:15.874Z,97
2016-05-27T00:24:19.811Z,97.8
2016-05-27T00:24:22.749Z,97.6
2016-05-27T00:24:25.718Z,97.5
2016-05-27T00:24:28.515Z,97.6
2016-05-27T00:24:32.499Z,97.2
2016-05-27T00:24:35.483Z,97.3
2016-05-27T00:24:38.296Z,97.3
2016-05-27T00:24:41.249Z,97.4
2016-05-27T00:24:45.171Z,98.1
2016-05-27T00:24:48.124Z,98.1
2016-05-27T00:24:51.249Z,98.2
2016-05-27T00:24:55.171Z,98.2
2016-05-27T00:24:58.126Z,98.1
2016-05-27T00:25:01.079Z,98.2
2016-05-27T00:25:04.032Z,98.1
2016-05-27T00:25:07.954Z,98.2
2016-05-27T00:25:10.751Z,98.3
2016-05-27T00:25:13.892Z,98.3
2016-05-27T00:25:16.829Z,97.9
2016-05-27T00:25:20.751Z,97.9
2016-05-27T00:25:23.688Z,97.8
2016-05-27T00:25:26.470Z,97.7
2016-05-27T00:25:29.423Z,98.1
2016-05-27T00:25:33.032Z,97.9
2016-05-27T00:25:35.829Z,97.7
2016-05-27T00:25:38.782Z,97.6
2016-05-27T00:25:41.579Z,98.2
2016-05-27T00:25:45.345Z,98.1
2016-05-27T00:25:48.282Z,98
2016-05-27T00:25:50.923Z,98.2
2016-05-27T00:25:53.720Z,97.9
2016-05-27T00:25:57.645Z,97.9
2016-05-27T00:26:00.598Z,98.1
2016-05-27T00:26:03.535Z,98.1
2016-05-27T00:26:06.176Z,98.1
2016-05-27T00:26:09.941Z,98.1
2016-05-27T00:26:12.879Z,97.7
2016-05-27T00:26:15.660Z,98.2
2016-05-27T00:26:18.598Z,98.1
2016-05-27T00:26:22.363Z,97.9
2016-05-27T00:26:25.160Z,98.1
2016-05-27T00:26:27.941Z,98.1
2016-05-27T00:26:30.895Z,97.5
2016-05-27T00:26:34.801Z,97.4
2016-05-27T00:26:37.754Z,97.6
2016-05-27T00:26:40.551Z,97.7
2016-05-27T00:26:43.332Z,97.6
2016-05-27T00:26:47.254Z,97.5
2016-05-27T00:26:49.895Z,97.6
2016-05-27T00:26:52.832Z,97.5
2016-05-27T00:26:55.770Z,97.8
2016-05-27T00:26:59.537Z,97.8
2016-05-27T00:27:02.490Z,97.4
2016-05-27T00:27:05.287Z,97.8
2016-05-27T00:27:08.225Z,97.8
2016-05-27T00:27:11.850Z,97.8
2016-05-27T00:27:14.803Z,97.7
2016-05-27T00:27:17.740Z,97.8
2016-05-27T00:27:20.678Z,97.8
2016-05-27T00:27:24.600Z,97.5
2016-05-27T00:27:27.553Z,97.9
2016-05-27T00:27:30.334Z,97.6
2016-05-27T00:27:33.115Z,97.7
2016-05-27T00:27:37.037Z,97.6
2016-05-27T00:27:39.834Z,97.5
2016-05-27T00:27:42.631Z,97.5
2016-05-27T00:27:45.568Z,97.7
2016-05-27T00:27:49.506Z,97.4
2016-05-27T00:27:52.287Z,97.4
2016-05-27T00:27:55.084Z,97.4
2016-05-27T00:27:58.040Z,97.5
2016-05-27T00:28:01.946Z,97.8
2016-05-27T00:28:04.900Z,97.7
2016-05-27T00:28:07.837Z,97.6
2016-05-27T00:28:10.790Z,97.2
2016-05-27T00:28:14.556Z,97.3
2016-05-27T00:28:17.353Z,97.4
2016-05-27T00:28:20.290Z,97.3
2016-05-27T00:28:23.243Z,97.5
2016-05-27T00:28:27.150Z,97.7
2016-05-27T00:28:30.103Z,97.6
2016-05-27T00:28:32.900Z,97.4
2016-05-27T00:28:35.884Z,97.5
2016-05-27T00:28:39.650Z,97.4
2016-05-27T00:28:42.603Z,97.4
2016-05-27T00:28:45.540Z,97.6
2016-05-27T00:28:48.493Z,96.9
2016-05-27T00:28:52.259Z,97
2016-05-27T00:28:55.196Z,97
2016-05-27T00:28:58.152Z,96.9
2016-05-27T00:29:00.948Z,96.9
2016-05-27T00:29:04.870Z,96.7
2016-05-27T00:29:07.667Z,96.9
2016-05-27T00:29:10.620Z,96.7
2016-05-27T00:29:13.402Z,96.8
2016-05-27T00:29:17.323Z,96.7
2016-05-27T00:29:20.261Z,96.9
2016-05-27T00:29:23.073Z,97.6
2016-05-27T00:29:26.027Z,97.5
2016-05-27T00:29:29.948Z,97.3
2016-05-27T00:29:32.886Z,97.3
2016-05-27T00:29:35.823Z,97.3
2016-05-27T00:29:38.777Z,97.9
2016-05-27T00:29:42.542Z,97.7
2016-05-27T00:29:45.339Z,97.3
2016-05-27T00:29:48.277Z,98.4
2016-05-27T00:29:51.073Z,98.1
2016-05-27T00:29:54.995Z,97.8
2016-05-27T00:29:57.936Z,97.9
2016-05-27T00:30:00.748Z,97.8
2016-05-27T00:30:03.701Z,97.7
2016-05-27T00:30:07.326Z,97.6
2016-05-27T00:30:10.264Z,97.7
2016-05-27T00:30:13.061Z,98.1
2016-05-27T00:30:15.858Z,98.1
2016-05-27T00:30:19.623Z,98.1
2016-05-27T00:30:22.561Z,97.9
2016-05-27T00:30:25.358Z,98
2016-05-27T00:30:28.139Z,97.9
2016-05-27T00:30:31.905Z,98.1
2016-05-27T00:30:34.842Z,98
2016-05-27T00:30:37.639Z,98.1
2016-05-27T00:30:40.576Z,97.9
2016-05-27T00:30:44.514Z,98.1
2016-05-27T00:30:47.451Z,98.2
2016-05-27T00:30:50.405Z,98.2
2016-05-27T00:30:53.186Z,97.9
2016-05-27T00:30:56.951Z,98.3
2016-05-27T00:30:59.908Z,98
2016-05-27T00:31:02.845Z,97.9
2016-05-27T00:31:05.798Z,98
2016-05-27T00:31:09.720Z,97.9
2016-05-27T00:31:12.361Z,97.8
2016-05-27T00:31:15.298Z,97.9
2016-05-27T00:31:18.079Z,97.9
2016-05-27T00:31:21.861Z,97.8
2016-05-27T00:31:24.642Z,98.1
2016-05-27T00:31:27.439Z,97.9
2016-05-27T00:31:30.236Z,98.3
2016-05-27T00:31:34.158Z,97.5
2016-05-27T00:31:37.111Z,97.6
2016-05-27T00:31:40.048Z,97.8
2016-05-27T00:31:42.673Z,97.7
2016-05-27T00:31:46.611Z,97.2
2016-05-27T00:31:49.564Z,97.4
2016-05-27T00:31:52.204Z,97.4
2016-05-27T00:31:54.986Z,97.4
2016-05-27T00:31:58.926Z,97.3
2016-05-27T00:32:01.723Z,97.5
2016-05-27T00:32:04.520Z,97.7
2016-05-27T00:32:07.286Z,97.5
2016-05-27T00:32:11.207Z,97.3
2016-05-27T00:32:14.161Z,97.4
2016-05-27T00:32:16.786Z,97.4
2016-05-27T00:32:19.582Z,97.4
2016-05-27T00:32:23.504Z,97.4
2016-05-27T00:32:26.442Z,97.3
2016-05-27T00:32:29.239Z,97.2
2016-05-27T00:32:32.176Z,96.9
2016-05-27T00:32:36.114Z,96.9
2016-05-27T00:32:39.051Z,96.7
2016-05-27T00:32:41.989Z,96.7
2016-05-27T00:32:44.942Z,96.7
2016-05-27T00:32:48.864Z,96.7
2016-05-27T00:32:51.817Z,96.8
2016-05-27T00:32:54.598Z,96.7
2016-05-27T00:32:57.553Z,96.7
2016-05-27T00:33:01.475Z,96.8
2016-05-27T00:33:04.100Z,97
2016-05-27T00:33:07.053Z,97.2
2016-05-27T00:33:09.678Z,97.2
2016-05-27T00:33:13.616Z,97.3
2016-05-27T00:33:16.553Z,97.8
2016-05-27T00:33:19.506Z,97.4
2016-05-27T00:33:22.147Z,97.4
2016-05-27T00:33:26.272Z,97.9
2016-05-27T00:33:29.506Z,98.2
2016-05-27T00:33:32.772Z,97.9
2016-05-27T00:33:36.772Z,97.9
2016-05-27T00:33:39.725Z,97.8
2016-05-27T00:33:42.381Z,97.8
2016-05-27T00:33:47.569Z,98
2016-05-27T00:33:50.663Z,98
2016-05-27T00:33:53.459Z,98
2016-05-27T00:33:58.025Z,98.7
2016-05-27T00:34:00.837Z,98.1
2016-05-27T00:34:03.322Z,98.5
2016-05-27T00:34:06.228Z,98.5
2016-05-27T00:34:10.291Z,98.5
2016-05-27T00:34:13.087Z,98.8
2016-05-27T00:34:15.572Z,98.2
2016-05-27T00:34:18.744Z,98
2016-05-27T00:34:22.962Z,98.2
2016-05-27T00:34:25.587Z,98.2
2016-05-27T00:34:28.744Z,98.2
2016-05-27T00:34:32.697Z,97.9
2016-05-27T00:34:35.634Z,97.9
2016-05-27T00:34:38.572Z,97.9
2016-05-27T00:34:41.369Z,98.1
2016-05-27T00:34:45.291Z,97.8
2016-05-27T00:34:48.244Z,98.1
2016-05-27T00:34:51.041Z,97.9
2016-05-27T00:34:53.978Z,97.9
2016-05-27T00:34:57.902Z,97.9
2016-05-27T00:35:00.855Z,98.2
2016-05-27T00:35:03.808Z,97.8
2016-05-27T00:35:06.746Z,97.3
2016-05-27T00:35:10.355Z,97.5
2016-05-27T00:35:13.152Z,97.6
2016-05-27T00:35:16.089Z,97.7
2016-05-27T00:35:19.043Z,97.9
2016-05-27T00:35:22.980Z,97.4
2016-05-27T00:35:25.761Z,97.5
2016-05-27T00:35:28.543Z,97.4
2016-05-27T00:35:31.480Z,97.2
2016-05-27T00:35:35.246Z,97.3
2016-05-27T00:35:38.043Z,97.4
2016-05-27T00:35:40.980Z,97.4
2016-05-27T00:35:43.933Z,97.2
2016-05-27T00:35:47.699Z,97.3
2016-05-27T00:35:50.636Z,97.3
2016-05-27T00:35:53.574Z,97.4
2016-05-27T00:35:56.527Z,97
2016-05-27T00:36:00.139Z,97.6
2016-05-27T00:36:02.936Z,97.5
2016-05-27T00:36:05.874Z,97.6
2016-05-27T00:36:08.827Z,97.5
2016-05-27T00:36:12.436Z,97.5
2016-05-27T00:36:15.374Z,97.3
2016-05-27T00:36:18.171Z,97.2
2016-05-27T00:36:21.108Z,97.5
2016-05-27T00:36:24.889Z,97.7
2016-05-27T00:36:27.827Z,97.8
2016-05-27T00:36:30.764Z,97.7
2016-05-27T00:36:33.561Z,97.7
2016-05-27T00:36:37.483Z,97.9
2016-05-27T00:36:40.421Z,97.3
2016-05-27T00:36:43.358Z,97.9
2016-05-27T00:36:46.296Z,97.1
2016-05-27T00:36:49.764Z,97.4
2016-05-27T00:36:52.421Z,97.5
2016-05-27T00:36:55.202Z,97.4
2016-05-27T00:36:58.158Z,97.4
2016-05-27T00:37:01.939Z,97.5
2016-05-27T00:37:04.720Z,97.3
2016-05-27T00:37:07.517Z,97.3
2016-05-27T00:37:10.158Z,97.5
2016-05-27T00:37:13.924Z,97.4
2016-05-27T00:37:16.720Z,96.9
2016-05-27T00:37:19.658Z,97.2
2016-05-27T00:37:22.611Z,97.3
2016-05-27T00:37:26.533Z,96.9
2016-05-27T00:37:29.470Z,97.3
2016-05-27T00:37:32.267Z,96.8
2016-05-27T00:37:34.752Z,97.1
2016-05-27T00:37:38.377Z,96.8
2016-05-27T00:37:41.002Z,96.9
2016-05-27T00:37:43.939Z,97.4
2016-05-27T00:37:46.892Z,97.2
2016-05-27T00:37:50.658Z,97
2016-05-27T00:37:53.611Z,97.3
2016-05-27T00:37:56.392Z,97.3
2016-05-27T00:37:59.333Z,97.5
2016-05-27T00:38:03.270Z,97.5
2016-05-27T00:38:06.223Z,97.5
2016-05-27T00:38:09.161Z,97.5
2016-05-27T00:38:12.098Z,97.4
2016-05-27T00:38:15.864Z,97.4
2016-05-27T00:38:18.817Z,97.4
2016-05-27T00:38:21.598Z,97.6
2016-05-27T00:38:24.380Z,97.2
2016-05-27T00:38:28.177Z,97.1
2016-05-27T00:38:31.114Z,97.5
2016-05-27T00:38:34.052Z,97.1
2016-05-27T00:38:36.833Z,97.2
2016-05-27T00:38:40.614Z,97.2
2016-05-27T00:38:43.411Z,97.3
2016-05-27T00:38:46.348Z,97.1
2016-05-27T00:38:49.302Z,97.6
2016-05-27T00:38:53.208Z,97.4
2016-05-27T00:38:56.145Z,97.8
2016-05-27T00:38:59.085Z,97.2
2016-05-27T00:39:02.038Z,97.3
2016-05-27T00:39:05.975Z,97.5
2016-05-27T00:39:08.944Z,97.3
2016-05-27T00:39:11.741Z,97.4
2016-05-27T00:39:14.538Z,97.3
2016-05-27T00:39:18.147Z,97.4
2016-05-27T00:39:21.085Z,97.4
2016-05-27T00:39:23.882Z,97.6
2016-05-27T00:39:26.819Z,97
2016-05-27T00:39:30.600Z,97.1
2016-05-27T00:39:33.382Z,97.3
2016-05-27T00:39:36.335Z,96.9
2016-05-27T00:39:39.132Z,96.9
2016-05-27T00:39:43.054Z,96.8
2016-05-27T00:39:45.850Z,96.8
2016-05-27T00:39:48.647Z,96.8
2016-05-27T00:39:51.429Z,96.8
2016-05-27T00:39:55.366Z,96.8
2016-05-27T00:39:58.307Z,96.9
2016-05-27T00:40:01.244Z,97
2016-05-27T00:40:04.041Z,97.1
2016-05-27T00:40:07.682Z,96.9
2016-05-27T00:40:10.619Z,96.8
2016-05-27T00:40:13.572Z,96.7
2016-05-27T00:40:16.369Z,97.1
2016-05-27T00:40:20.291Z,97.1
2016-05-27T00:40:23.228Z,97
2016-05-27T00:40:26.166Z,96.6
2016-05-27T00:40:29.119Z,97.1
2016-05-27T00:40:33.041Z,96.8
2016-05-27T00:40:35.978Z,96.9
2016-05-27T00:40:38.932Z,96.8
2016-05-27T00:40:41.416Z,96.8
2016-05-27T00:40:45.338Z,96.7
2016-05-27T00:40:47.822Z,96.8
2016-05-27T00:40:50.603Z,96.6
2016-05-27T00:40:53.557Z,96.6
2016-05-27T00:40:57.166Z,96.7
2016-05-27T00:41:00.122Z,96.8
2016-05-27T00:41:03.060Z,96.7
2016-05-27T00:41:05.997Z,96.9
2016-05-27T00:41:09.919Z,96.8
2016-05-27T00:41:12.856Z,97.1
2016-05-27T00:41:15.638Z,96.8
2016-05-27T00:41:18.435Z,97
2016-05-27T00:41:22.372Z,96.8
2016-05-27T00:41:25.325Z,96.9
2016-05-27T00:41:28.278Z,97.1
2016-05-27T00:41:31.216Z,97.2
2016-05-27T00:41:34.997Z,97.5
2016-05-27T00:41:37.935Z,97.3
2016-05-27T00:41:40.731Z,97.3
2016-05-27T00:41:43.513Z,97.3
2016-05-27T00:41:47.435Z,97
2016-05-27T00:41:50.388Z,97.4
2016-05-27T00:41:53.013Z,97.3
2016-05-27T00:41:55.810Z,97.3